createdAt,value
2017-08-10T00:00:03.699Z,803.26
2017-08-10T00:00:07.921Z,803.21
2017-08-10T00:00:12.030Z,803.23
2017-08-10T00:00:16.395Z,803.24
2017-08-10T00:00:20.724Z,803.22
2017-08-10T00:00:25.095Z,803.24
2017-08-10T00:00:29.577Z,803.21
2017-08-10T00:00:34.040Z,803.23
2017-08-10T00:00:38.496Z,803.16
2017-08-10T00:00:42.970Z,803.18
2017-08-10T00:00:47.442Z,803.21
2017-08-10T00:00:51.672Z,803.2
2017-08-10T00:00:56.123Z,803.2
2017-08-10T00:01:00.490Z,803.18
2017-08-10T00:01:04.953Z,803.18
2017-08-10T00:01:09.304Z,803.12
2017-08-10T00:01:13.631Z,803.17
2017-08-10T00:01:17.753Z,803.07
2017-08-10T00:01:22.221Z,803.15
2017-08-10T00:01:26.558Z,803.1
2017-08-10T00:01:31.028Z,803.12
2017-08-10T00:01:35.386Z,803.09
2017-08-10T00:01:39.845Z,803.11
2017-08-10T00:01:44.191Z,803.09
2017-08-10T00:01:48.676Z,803.08
2017-08-10T00:01:53.140Z,803.07
2017-08-10T00:01:57.599Z,803.07
2017-08-10T00:02:02.069Z,803.01
2017-08-10T00:02:06.308Z,803
2017-08-10T00:02:10.296Z,803.02
2017-08-10T00:02:14.426Z,803.01
2017-08-10T00:02:18.663Z,803.02
2017-08-10T00:02:23.136Z,802.99
2017-08-10T00:02:27.607Z,803.01
2017-08-10T00:02:31.952Z,803
2017-08-10T00:02:36.455Z,802.98
2017-08-10T00:02:40.792Z,802.99
2017-08-10T00:02:45.257Z,802.99
2017-08-10T00:02:49.736Z,802.92
2017-08-10T00:02:54.191Z,802.95
2017-08-10T00:02:58.553Z,802.95
2017-08-10T00:03:02.912Z,802.96
2017-08-10T00:03:07.371Z,802.93
2017-08-10T00:03:11.833Z,802.93
2017-08-10T00:03:16.060Z,802.9
2017-08-10T00:03:20.206Z,802.9
2017-08-10T00:03:24.687Z,802.87
2017-08-10T00:03:29.049Z,802.91
2017-08-10T00:03:33.520Z,802.88
2017-08-10T00:03:38.015Z,802.9
2017-08-10T00:03:42.468Z,802.87
2017-08-10T00:03:46.917Z,802.8
2017-08-10T00:03:51.256Z,802.87
2017-08-10T00:03:55.603Z,802.87
2017-08-10T00:03:59.826Z,802.78
2017-08-10T00:04:04.182Z,802.79
2017-08-10T00:04:08.813Z,802.84
2017-08-10T00:04:13.051Z,802.83
2017-08-10T00:04:17.276Z,802.82
2017-08-10T00:04:21.509Z,802.8
2017-08-10T00:04:25.858Z,802.82
2017-08-10T00:04:30.351Z,802.78
2017-08-10T00:04:34.823Z,802.79
2017-08-10T00:04:39.160Z,802.77
2017-08-10T00:04:43.627Z,802.81
2017-08-10T00:04:47.848Z,802.8
2017-08-10T00:04:52.295Z,802.77
2017-08-10T00:04:56.773Z,802.73
2017-08-10T00:05:01.131Z,802.71
2017-08-10T00:05:05.773Z,802.74
2017-08-10T00:05:10.114Z,802.74
2017-08-10T00:05:14.474Z,802.74
2017-08-10T00:05:18.833Z,802.74
2017-08-10T00:05:23.305Z,802.72
2017-08-10T00:05:27.645Z,802.73
2017-08-10T00:05:32.106Z,802.66
2017-08-10T00:05:36.438Z,802.66
2017-08-10T00:05:40.913Z,802.68
2017-08-10T00:05:45.274Z,802.69
2017-08-10T00:05:49.744Z,802.68
2017-08-10T00:05:54.094Z,802.67
2017-08-10T00:05:58.430Z,802.63
2017-08-10T00:06:02.779Z,802.63
2017-08-10T00:06:06.997Z,802.65
2017-08-10T00:06:11.228Z,802.63
2017-08-10T00:06:15.471Z,802.63
2017-08-10T00:06:19.702Z,802.59
2017-08-10T00:06:24.063Z,802.56
2017-08-10T00:06:28.527Z,802.6
2017-08-10T00:06:32.990Z,802.56
2017-08-10T00:06:37.317Z,802.57
2017-08-10T00:06:41.780Z,802.55
2017-08-10T00:06:46.258Z,802.58
2017-08-10T00:06:50.756Z,802.54
2017-08-10T00:06:55.209Z,802.53
2017-08-10T00:06:59.549Z,802.54
2017-08-10T00:07:03.659Z,802.55
2017-08-10T00:07:08.156Z,802.5
2017-08-10T00:07:12.507Z,802.53
2017-08-10T00:07:16.982Z,802.51
2017-08-10T00:07:21.447Z,802.48
2017-08-10T00:07:25.917Z,802.45
2017-08-10T00:07:30.373Z,802.47
2017-08-10T00:07:34.852Z,802.48
2017-08-10T00:07:39.339Z,802.43
2017-08-10T00:07:43.802Z,802.45
2017-08-10T00:07:48.151Z,802.48
2017-08-10T00:07:52.401Z,802.44
2017-08-10T00:07:56.767Z,802.46
2017-08-10T00:08:00.993Z,802.45
2017-08-10T00:08:05.397Z,802.42
2017-08-10T00:08:09.890Z,802.41
2017-08-10T00:08:14.113Z,802.44
2017-08-10T00:08:18.443Z,802.35
2017-08-10T00:08:22.788Z,802.38
2017-08-10T00:08:27.263Z,802.38
2017-08-10T00:08:31.752Z,802.36
2017-08-10T00:08:36.122Z,802.4
2017-08-10T00:08:40.594Z,802.39
2017-08-10T00:08:44.929Z,802.35
2017-08-10T00:08:49.272Z,802.37
2017-08-10T00:08:53.737Z,802.35
2017-08-10T00:08:57.977Z,802.32
2017-08-10T00:09:02.320Z,802.33
2017-08-10T00:09:06.532Z,802.33
2017-08-10T00:09:11.314Z,802.28
2017-08-10T00:09:15.660Z,802.3
2017-08-10T00:09:20.124Z,802.29
2017-08-10T00:09:24.452Z,802.29
2017-08-10T00:09:28.676Z,802.3
2017-08-10T00:09:33.132Z,802.29
2017-08-10T00:09:37.589Z,802.24
2017-08-10T00:09:42.061Z,802.24
2017-08-10T00:09:46.310Z,802.25
2017-08-10T00:09:50.782Z,802.23
2017-08-10T00:09:55.011Z,802.25
2017-08-10T00:09:59.509Z,802.22
2017-08-10T00:10:03.811Z,802.18
2017-08-10T00:10:08.158Z,802.21
2017-08-10T00:10:12.632Z,802.2
2017-08-10T00:10:16.994Z,802.22
2017-08-10T00:10:21.102Z,802.21
2017-08-10T00:10:25.436Z,802.14
2017-08-10T00:10:29.908Z,802.17
2017-08-10T00:10:34.380Z,802.16
2017-08-10T00:10:38.848Z,802.18
2017-08-10T00:10:43.316Z,802.16
2017-08-10T00:10:47.674Z,802.17
2017-08-10T00:10:52.127Z,802.16
2017-08-10T00:10:56.459Z,802.15
2017-08-10T00:11:00.810Z,802.17
2017-08-10T00:11:05.237Z,802.14
2017-08-10T00:11:09.348Z,802.12
2017-08-10T00:11:13.829Z,802.1
2017-08-10T00:11:17.955Z,802.11
2017-08-10T00:11:22.309Z,802.09
2017-08-10T00:11:26.557Z,802.1
2017-08-10T00:11:31.041Z,802.07
2017-08-10T00:11:35.503Z,802.07
2017-08-10T00:11:39.852Z,802.04
2017-08-10T00:11:44.327Z,802.07
2017-08-10T00:11:48.554Z,802.05
2017-08-10T00:11:52.927Z,802.05
2017-08-10T00:11:57.258Z,802.04
2017-08-10T00:12:02.019Z,802
2017-08-10T00:12:06.261Z,802.03
2017-08-10T00:12:10.589Z,802.06
2017-08-10T00:12:15.060Z,801.98
2017-08-10T00:12:19.174Z,801.96
2017-08-10T00:12:23.524Z,801.96
2017-08-10T00:12:27.995Z,802.03
2017-08-10T00:12:32.450Z,802
2017-08-10T00:12:36.955Z,801.98
2017-08-10T00:12:41.310Z,801.96
2017-08-10T00:12:45.542Z,801.97
2017-08-10T00:12:49.762Z,801.96
2017-08-10T00:12:54.114Z,801.93
2017-08-10T00:12:58.579Z,801.98
2017-08-10T00:13:03.116Z,801.94
2017-08-10T00:13:07.465Z,801.97
2017-08-10T00:13:11.696Z,801.94
2017-08-10T00:13:16.037Z,801.94
2017-08-10T00:13:20.493Z,801.96
2017-08-10T00:13:24.960Z,801.92
2017-08-10T00:13:29.436Z,801.92
2017-08-10T00:13:33.786Z,801.91
2017-08-10T00:13:38.251Z,801.9
2017-08-10T00:13:42.599Z,801.85
2017-08-10T00:13:46.942Z,801.89
2017-08-10T00:13:51.042Z,801.89
2017-08-10T00:13:55.266Z,801.9
2017-08-10T00:13:59.628Z,801.88
2017-08-10T00:14:04.199Z,801.88
2017-08-10T00:14:08.431Z,801.88
2017-08-10T00:14:12.676Z,801.87
2017-08-10T00:14:16.910Z,801.84
2017-08-10T00:14:21.134Z,801.85
2017-08-10T00:14:25.599Z,801.87
2017-08-10T00:14:30.077Z,801.82
2017-08-10T00:14:34.425Z,801.81
2017-08-10T00:14:38.749Z,801.83
2017-08-10T00:14:42.965Z,801.86
2017-08-10T00:14:47.313Z,801.82
2017-08-10T00:14:51.550Z,801.81
2017-08-10T00:14:56.019Z,801.85
2017-08-10T00:15:00.479Z,801.84
2017-08-10T00:15:05.055Z,801.84
2017-08-10T00:15:09.417Z,801.8
2017-08-10T00:15:13.754Z,801.84
2017-08-10T00:15:17.872Z,801.79
2017-08-10T00:15:22.210Z,801.82
2017-08-10T00:15:26.444Z,801.76
2017-08-10T00:15:30.909Z,801.82
2017-08-10T00:15:35.151Z,801.78
2017-08-10T00:15:39.619Z,801.76
2017-08-10T00:15:43.740Z,801.78
2017-08-10T00:15:47.849Z,801.78
2017-08-10T00:15:52.078Z,801.78
2017-08-10T00:15:56.523Z,801.81
2017-08-10T00:16:00.991Z,801.8
2017-08-10T00:16:05.446Z,801.78
2017-08-10T00:16:09.683Z,801.79
2017-08-10T00:16:14.024Z,801.79
2017-08-10T00:16:18.379Z,801.76
2017-08-10T00:16:22.719Z,801.73
2017-08-10T00:16:27.174Z,801.73
2017-08-10T00:16:31.516Z,801.77
2017-08-10T00:16:35.987Z,801.77
2017-08-10T00:16:40.457Z,801.69
2017-08-10T00:16:44.677Z,801.73
2017-08-10T00:16:48.802Z,801.76
2017-08-10T00:16:53.035Z,801.76
2017-08-10T00:16:57.389Z,801.73
2017-08-10T00:17:01.847Z,801.73
2017-08-10T00:17:06.298Z,801.75
2017-08-10T00:17:10.660Z,801.74
2017-08-10T00:17:15.020Z,801.71
2017-08-10T00:17:19.361Z,801.75
2017-08-10T00:17:23.571Z,801.75
2017-08-10T00:17:27.929Z,801.73
2017-08-10T00:17:32.272Z,801.71
2017-08-10T00:17:36.493Z,801.71
2017-08-10T00:17:40.951Z,801.7
2017-08-10T00:17:45.293Z,801.72
2017-08-10T00:17:49.641Z,801.75
2017-08-10T00:17:53.875Z,801.66
2017-08-10T00:17:58.245Z,801.66
2017-08-10T00:18:02.670Z,801.68
2017-08-10T00:18:07.011Z,801.69
2017-08-10T00:18:11.350Z,801.7
2017-08-10T00:18:15.707Z,801.71
2017-08-10T00:18:20.089Z,801.71
2017-08-10T00:18:24.555Z,801.7
2017-08-10T00:18:28.910Z,801.71
2017-08-10T00:18:33.395Z,801.69
2017-08-10T00:18:37.841Z,801.7
2017-08-10T00:18:42.187Z,801.7
2017-08-10T00:18:46.538Z,801.73
2017-08-10T00:18:51.017Z,801.7
2017-08-10T00:18:55.344Z,801.69
2017-08-10T00:18:59.676Z,801.69
2017-08-10T00:19:04.396Z,801.71
2017-08-10T00:19:08.741Z,801.68
2017-08-10T00:19:12.970Z,801.69
2017-08-10T00:19:17.434Z,801.7
2017-08-10T00:19:21.897Z,801.69
2017-08-10T00:19:26.254Z,801.69
2017-08-10T00:19:30.718Z,801.7
2017-08-10T00:19:35.070Z,801.7
2017-08-10T00:19:39.428Z,801.69
2017-08-10T00:19:43.885Z,801.71
2017-08-10T00:19:48.229Z,801.64
2017-08-10T00:19:52.608Z,801.64
2017-08-10T00:19:57.089Z,801.68
2017-08-10T00:20:01.785Z,801.68
2017-08-10T00:20:06.018Z,801.68
2017-08-10T00:20:10.270Z,801.71
2017-08-10T00:20:14.616Z,801.68
2017-08-10T00:20:18.949Z,801.66
2017-08-10T00:20:23.428Z,801.7
2017-08-10T00:20:27.912Z,801.71
2017-08-10T00:20:32.017Z,801.67
2017-08-10T00:20:36.374Z,801.7
2017-08-10T00:20:40.870Z,801.69
2017-08-10T00:20:45.218Z,801.71
2017-08-10T00:20:49.574Z,801.68
2017-08-10T00:20:54.036Z,801.65
2017-08-10T00:20:58.517Z,801.68
2017-08-10T00:21:03.104Z,801.68
2017-08-10T00:21:07.448Z,801.7
2017-08-10T00:21:11.796Z,801.69
2017-08-10T00:21:16.146Z,801.69
2017-08-10T00:21:20.599Z,801.67
2017-08-10T00:21:24.830Z,801.69
2017-08-10T00:21:29.303Z,801.71
2017-08-10T00:21:33.531Z,801.69
2017-08-10T00:21:37.877Z,801.66
2017-08-10T00:21:42.341Z,801.7
2017-08-10T00:21:46.808Z,801.61
2017-08-10T00:21:51.161Z,801.68
2017-08-10T00:21:55.508Z,801.67
2017-08-10T00:21:59.852Z,801.68
2017-08-10T00:22:04.315Z,801.69
2017-08-10T00:22:08.656Z,801.68
2017-08-10T00:22:12.984Z,801.65
2017-08-10T00:22:17.225Z,801.67
2017-08-10T00:22:21.502Z,801.68
2017-08-10T00:22:25.838Z,801.69
2017-08-10T00:22:30.185Z,801.67
2017-08-10T00:22:34.642Z,801.6
2017-08-10T00:22:38.924Z,801.63
2017-08-10T00:22:43.389Z,801.66
2017-08-10T00:22:47.624Z,801.66
2017-08-10T00:22:52.084Z,801.62
2017-08-10T00:22:56.422Z,801.65
2017-08-10T00:23:00.900Z,801.63
2017-08-10T00:23:05.668Z,801.64
2017-08-10T00:23:09.893Z,801.67
2017-08-10T00:23:14.123Z,801.64
2017-08-10T00:23:18.348Z,801.63
2017-08-10T00:23:22.467Z,801.63
2017-08-10T00:23:26.698Z,801.66
2017-08-10T00:23:31.154Z,801.64
2017-08-10T00:23:35.378Z,801.63
2017-08-10T00:23:39.850Z,801.66
2017-08-10T00:23:44.202Z,801.63
2017-08-10T00:23:48.546Z,801.63
2017-08-10T00:23:53.010Z,801.65
2017-08-10T00:23:57.466Z,801.64
2017-08-10T00:24:01.814Z,801.63
2017-08-10T00:24:06.278Z,801.61
2017-08-10T00:24:10.504Z,801.6
2017-08-10T00:24:14.856Z,801.64
2017-08-10T00:24:19.089Z,801.62
2017-08-10T00:24:23.311Z,801.6
2017-08-10T00:24:27.649Z,801.63
2017-08-10T00:24:32.112Z,801.62
2017-08-10T00:24:36.341Z,801.6
2017-08-10T00:24:40.805Z,801.6
2017-08-10T00:24:45.305Z,801.56
2017-08-10T00:24:49.778Z,801.59
2017-08-10T00:24:54.231Z,801.6
2017-08-10T00:24:58.699Z,801.56
2017-08-10T00:25:03.218Z,801.54
2017-08-10T00:25:07.568Z,801.59
2017-08-10T00:25:12.015Z,801.55
2017-08-10T00:25:16.248Z,801.58
2017-08-10T00:25:20.603Z,801.54
2017-08-10T00:25:25.063Z,801.55
2017-08-10T00:25:29.526Z,801.54
2017-08-10T00:25:33.988Z,801.55
2017-08-10T00:25:38.444Z,801.52
2017-08-10T00:25:42.788Z,801.53
2017-08-10T00:25:47.141Z,801.55
2017-08-10T00:25:51.632Z,801.54
2017-08-10T00:25:55.974Z,801.48
2017-08-10T00:26:00.303Z,801.52
2017-08-10T00:26:04.905Z,801.54
2017-08-10T00:26:09.250Z,801.54
2017-08-10T00:26:13.714Z,801.5
2017-08-10T00:26:17.937Z,801.52
2017-08-10T00:26:22.294Z,801.5
2017-08-10T00:26:26.756Z,801.51
2017-08-10T00:26:31.092Z,801.49
2017-08-10T00:26:35.447Z,801.48
2017-08-10T00:26:39.807Z,801.47
2017-08-10T00:26:44.153Z,801.45
2017-08-10T00:26:48.382Z,801.47
2017-08-10T00:26:52.860Z,801.48
2017-08-10T00:26:57.328Z,801.48
2017-08-10T00:27:02.069Z,801.49
2017-08-10T00:27:06.548Z,801.45
2017-08-10T00:27:11.033Z,801.43
2017-08-10T00:27:15.364Z,801.44
2017-08-10T00:27:19.694Z,801.47
2017-08-10T00:27:24.032Z,801.44
2017-08-10T00:27:28.257Z,801.44
2017-08-10T00:27:32.723Z,801.44
2017-08-10T00:27:37.183Z,801.47
2017-08-10T00:27:41.440Z,801.45
2017-08-10T00:27:45.888Z,801.46
2017-08-10T00:27:50.355Z,801.41
2017-08-10T00:27:54.695Z,801.43
2017-08-10T00:27:59.041Z,801.46
2017-08-10T00:28:03.275Z,801.43
2017-08-10T00:28:07.721Z,801.41
2017-08-10T00:28:11.837Z,801.41
2017-08-10T00:28:16.334Z,801.41
2017-08-10T00:28:20.578Z,801.4
2017-08-10T00:28:25.040Z,801.43
2017-08-10T00:28:29.392Z,801.42
2017-08-10T00:28:33.768Z,801.37
2017-08-10T00:28:38.007Z,801.39
2017-08-10T00:28:42.453Z,801.42
2017-08-10T00:28:46.913Z,801.36
2017-08-10T00:28:51.150Z,801.41
2017-08-10T00:28:55.620Z,801.4
2017-08-10T00:28:59.964Z,801.39
2017-08-10T00:29:04.331Z,801.41
2017-08-10T00:29:08.796Z,801.4
2017-08-10T00:29:13.159Z,801.38
2017-08-10T00:29:17.517Z,801.39
2017-08-10T00:29:21.881Z,801.41
2017-08-10T00:29:26.230Z,801.38
2017-08-10T00:29:30.581Z,801.37
2017-08-10T00:29:34.934Z,801.38
2017-08-10T00:29:39.187Z,801.39
2017-08-10T00:29:43.424Z,801.38
2017-08-10T00:29:47.877Z,801.35
2017-08-10T00:29:52.352Z,801.38
2017-08-10T00:29:56.575Z,801.35
2017-08-10T00:30:01.040Z,801.37
2017-08-10T00:30:05.388Z,801.35
2017-08-10T00:30:09.507Z,801.33
2017-08-10T00:30:13.978Z,801.34
2017-08-10T00:30:18.322Z,801.33
2017-08-10T00:30:22.668Z,801.35
2017-08-10T00:30:27.130Z,801.34
2017-08-10T00:30:31.598Z,801.31
2017-08-10T00:30:35.954Z,801.34
2017-08-10T00:30:40.310Z,801.33
2017-08-10T00:30:44.540Z,801.34
2017-08-10T00:30:48.988Z,801.32
2017-08-10T00:30:53.464Z,801.34
2017-08-10T00:30:57.804Z,801.34
2017-08-10T00:31:02.161Z,801.34
2017-08-10T00:31:06.495Z,801.32
2017-08-10T00:31:10.969Z,801.33
2017-08-10T00:31:15.092Z,801.33
2017-08-10T00:31:19.314Z,801.33
2017-08-10T00:31:23.537Z,801.3
2017-08-10T00:31:27.892Z,801.28
2017-08-10T00:31:32.360Z,801.28
2017-08-10T00:31:36.702Z,801.3
2017-08-10T00:31:41.176Z,801.27
2017-08-10T00:31:45.301Z,801.26
2017-08-10T00:31:49.630Z,801.27
2017-08-10T00:31:53.981Z,801.29
2017-08-10T00:31:58.466Z,801.26
2017-08-10T00:32:02.701Z,801.26
2017-08-10T00:32:06.929Z,801.25
2017-08-10T00:32:11.165Z,801.26
2017-08-10T00:32:15.268Z,801.27
2017-08-10T00:32:19.734Z,801.23
2017-08-10T00:32:23.961Z,801.22
2017-08-10T00:32:28.418Z,801.25
2017-08-10T00:32:32.769Z,801.26
2017-08-10T00:32:37.031Z,801.25
2017-08-10T00:32:41.382Z,801.23
2017-08-10T00:32:45.845Z,801.22
2017-08-10T00:32:50.217Z,801.19
2017-08-10T00:32:54.435Z,801.21
2017-08-10T00:32:58.914Z,801.2
2017-08-10T00:33:03.393Z,801.19
2017-08-10T00:33:07.734Z,801.18
2017-08-10T00:33:12.204Z,801.16
2017-08-10T00:33:16.538Z,801.12
2017-08-10T00:33:20.664Z,801.19
2017-08-10T00:33:25.009Z,801.16
2017-08-10T00:33:29.469Z,801.18
2017-08-10T00:33:33.923Z,801.18
2017-08-10T00:33:38.301Z,801.17
2017-08-10T00:33:42.638Z,801.18
2017-08-10T00:33:47.109Z,801.17
2017-08-10T00:33:51.608Z,801.08
2017-08-10T00:33:56.067Z,801.16
2017-08-10T00:34:00.525Z,801.13
2017-08-10T00:34:04.990Z,801.15
2017-08-10T00:34:09.251Z,801.15
2017-08-10T00:34:13.365Z,801.12
2017-08-10T00:34:17.715Z,801.11
2017-08-10T00:34:22.063Z,801.09
2017-08-10T00:34:26.417Z,801.11
2017-08-10T00:34:30.780Z,801.12
2017-08-10T00:34:35.125Z,801.08
2017-08-10T00:34:39.597Z,801.13
2017-08-10T00:34:43.920Z,801.05
2017-08-10T00:34:48.138Z,801.06
2017-08-10T00:34:52.492Z,801.08
2017-08-10T00:34:56.959Z,801.06
2017-08-10T00:35:01.419Z,801.08
2017-08-10T00:35:05.763Z,801.08
2017-08-10T00:35:10.126Z,801.03
2017-08-10T00:35:14.380Z,801.08
2017-08-10T00:35:18.832Z,801.02
2017-08-10T00:35:23.063Z,801.09
2017-08-10T00:35:27.519Z,801.04
2017-08-10T00:35:31.977Z,801.05
2017-08-10T00:35:36.430Z,801.02
2017-08-10T00:35:40.776Z,801.03
2017-08-10T00:35:45.239Z,801.03
2017-08-10T00:35:49.701Z,801.02
2017-08-10T00:35:53.939Z,801.02
2017-08-10T00:35:58.428Z,801.03
2017-08-10T00:36:02.645Z,801.03
2017-08-10T00:36:06.867Z,801.02
2017-08-10T00:36:11.190Z,801.03
2017-08-10T00:36:15.655Z,801.01
2017-08-10T00:36:19.876Z,800.99
2017-08-10T00:36:24.348Z,800.99
2017-08-10T00:36:28.454Z,800.98
2017-08-10T00:36:32.923Z,800.99
2017-08-10T00:36:37.148Z,800.96
2017-08-10T00:36:41.401Z,800.99
2017-08-10T00:36:45.513Z,800.99
2017-08-10T00:36:49.989Z,800.97
2017-08-10T00:36:54.207Z,800.98
2017-08-10T00:36:58.554Z,800.94
2017-08-10T00:37:03.236Z,800.97
2017-08-10T00:37:07.706Z,800.96
2017-08-10T00:37:12.173Z,800.95
2017-08-10T00:37:16.384Z,800.94
2017-08-10T00:37:20.622Z,800.96
2017-08-10T00:37:24.960Z,800.95
2017-08-10T00:37:29.315Z,800.91
2017-08-10T00:37:33.660Z,800.91
2017-08-10T00:37:37.918Z,800.92
2017-08-10T00:37:42.153Z,800.89
2017-08-10T00:37:46.632Z,800.9
2017-08-10T00:37:50.994Z,800.88
2017-08-10T00:37:55.350Z,800.91
2017-08-10T00:37:59.812Z,800.91
2017-08-10T00:38:04.576Z,800.93
2017-08-10T00:38:09.033Z,800.93
2017-08-10T00:38:13.274Z,800.9
2017-08-10T00:38:17.620Z,800.91
2017-08-10T00:38:22.089Z,800.87
2017-08-10T00:38:26.317Z,800.93
2017-08-10T00:38:30.819Z,800.92
2017-08-10T00:38:35.182Z,800.89
2017-08-10T00:38:39.547Z,800.88
2017-08-10T00:38:43.887Z,800.89
2017-08-10T00:38:48.223Z,800.88
2017-08-10T00:38:52.686Z,800.89
2017-08-10T00:38:57.033Z,800.87
2017-08-10T00:39:01.543Z,800.8
2017-08-10T00:39:06.009Z,800.88
2017-08-10T00:39:10.478Z,800.84
2017-08-10T00:39:14.593Z,800.87
2017-08-10T00:39:19.046Z,800.86
2017-08-10T00:39:23.500Z,800.82
2017-08-10T00:39:27.957Z,800.88
2017-08-10T00:39:32.193Z,800.83
2017-08-10T00:39:36.565Z,800.83
2017-08-10T00:39:41.040Z,800.8
2017-08-10T00:39:45.272Z,800.84
2017-08-10T00:39:49.646Z,800.84
2017-08-10T00:39:53.893Z,800.87
2017-08-10T00:39:58.259Z,800.87
2017-08-10T00:40:02.733Z,800.85
2017-08-10T00:40:06.886Z,800.87
2017-08-10T00:40:11.229Z,800.85
2017-08-10T00:40:15.470Z,800.85
2017-08-10T00:40:19.942Z,800.86
2017-08-10T00:40:24.406Z,800.84
2017-08-10T00:40:28.749Z,800.84
2017-08-10T00:40:32.982Z,800.83
2017-08-10T00:40:37.227Z,800.85
2017-08-10T00:40:41.548Z,800.84
2017-08-10T00:40:45.878Z,800.88
2017-08-10T00:40:50.249Z,800.86
2017-08-10T00:40:54.603Z,800.83
2017-08-10T00:40:59.068Z,800.84
2017-08-10T00:41:03.668Z,800.85
2017-08-10T00:41:08.142Z,800.85
2017-08-10T00:41:12.608Z,800.85
2017-08-10T00:41:17.056Z,800.83
2017-08-10T00:41:21.388Z,800.8
2017-08-10T00:41:25.851Z,800.83
2017-08-10T00:41:30.324Z,800.87
2017-08-10T00:41:34.779Z,800.84
2017-08-10T00:41:39.127Z,800.84
2017-08-10T00:41:43.478Z,800.85
2017-08-10T00:41:47.944Z,800.83
2017-08-10T00:41:52.182Z,800.87
2017-08-10T00:41:56.528Z,800.87
2017-08-10T00:42:00.857Z,800.87
2017-08-10T00:42:04.960Z,800.89
2017-08-10T00:42:09.066Z,800.89
2017-08-10T00:42:13.419Z,800.86
2017-08-10T00:42:17.774Z,800.9
2017-08-10T00:42:22.223Z,800.89
2017-08-10T00:42:26.567Z,800.88
2017-08-10T00:42:30.787Z,800.88
2017-08-10T00:42:35.022Z,800.89
2017-08-10T00:42:39.368Z,800.88
2017-08-10T00:42:43.713Z,800.88
2017-08-10T00:42:48.064Z,800.87
2017-08-10T00:42:52.308Z,800.89
2017-08-10T00:42:56.431Z,800.9
2017-08-10T00:43:00.774Z,800.87
2017-08-10T00:43:05.108Z,800.9
2017-08-10T00:43:09.566Z,800.9
2017-08-10T00:43:14.041Z,800.94
2017-08-10T00:43:18.488Z,800.94
2017-08-10T00:43:22.937Z,800.94
2017-08-10T00:43:27.269Z,800.9
2017-08-10T00:43:31.721Z,800.94
2017-08-10T00:43:35.968Z,800.92
2017-08-10T00:43:40.321Z,800.96
2017-08-10T00:43:44.556Z,800.94
2017-08-10T00:43:48.904Z,800.93
2017-08-10T00:43:53.261Z,800.96
2017-08-10T00:43:57.719Z,800.91
2017-08-10T00:44:02.199Z,800.96
2017-08-10T00:44:06.554Z,800.99
2017-08-10T00:44:10.664Z,800.98
2017-08-10T00:44:15.010Z,800.98
2017-08-10T00:44:19.370Z,800.97
2017-08-10T00:44:23.832Z,800.98
2017-08-10T00:44:28.182Z,801.01
2017-08-10T00:44:32.413Z,801.01
2017-08-10T00:44:36.647Z,801.03
2017-08-10T00:44:41.124Z,800.99
2017-08-10T00:44:45.244Z,801.01
2017-08-10T00:44:49.588Z,801.02
2017-08-10T00:44:53.856Z,801.03
2017-08-10T00:44:58.303Z,801.04
2017-08-10T00:45:02.757Z,801.03
2017-08-10T00:45:07.113Z,801.04
2017-08-10T00:45:11.566Z,801.04
2017-08-10T00:45:16.031Z,801
2017-08-10T00:45:20.497Z,801.02
2017-08-10T00:45:24.971Z,801.04
2017-08-10T00:45:29.322Z,801.06
2017-08-10T00:45:33.785Z,801.09
2017-08-10T00:45:38.018Z,801.1
2017-08-10T00:45:42.361Z,801.1
2017-08-10T00:45:46.709Z,801.12
2017-08-10T00:45:51.045Z,801.08
2017-08-10T00:45:55.269Z,801.12
2017-08-10T00:45:59.617Z,801.14
2017-08-10T00:46:04.008Z,801.15
2017-08-10T00:46:08.478Z,801.16
2017-08-10T00:46:12.718Z,801.17
2017-08-10T00:46:17.073Z,801.17
2017-08-10T00:46:21.415Z,801.16
2017-08-10T00:46:25.886Z,801.12
2017-08-10T00:46:30.132Z,801.15
2017-08-10T00:46:34.356Z,801.2
2017-08-10T00:46:38.695Z,801.15
2017-08-10T00:46:43.037Z,801.19
2017-08-10T00:46:47.385Z,801.22
2017-08-10T00:46:51.839Z,801.25
2017-08-10T00:46:56.186Z,801.24
2017-08-10T00:47:00.671Z,801.19
2017-08-10T00:47:05.017Z,801.19
2017-08-10T00:47:09.233Z,801.25
2017-08-10T00:47:13.572Z,801.25
2017-08-10T00:47:17.925Z,801.24
2017-08-10T00:47:22.393Z,801.27
2017-08-10T00:47:26.845Z,801.26
2017-08-10T00:47:31.191Z,801.28
2017-08-10T00:47:35.686Z,801.21
2017-08-10T00:47:40.149Z,801.31
2017-08-10T00:47:44.491Z,801.27
2017-08-10T00:47:48.728Z,801.31
2017-08-10T00:47:53.071Z,801.3
2017-08-10T00:47:57.196Z,801.31
2017-08-10T00:48:01.548Z,801.33
2017-08-10T00:48:05.781Z,801.34
2017-08-10T00:48:10.154Z,801.35
2017-08-10T00:48:14.512Z,801.36
2017-08-10T00:48:18.849Z,801.36
2017-08-10T00:48:23.073Z,801.32
2017-08-10T00:48:27.296Z,801.39
2017-08-10T00:48:31.637Z,801.36
2017-08-10T00:48:35.978Z,801.4
2017-08-10T00:48:40.448Z,801.33
2017-08-10T00:48:44.801Z,801.39
2017-08-10T00:48:49.254Z,801.39
2017-08-10T00:48:53.594Z,801.4
2017-08-10T00:48:58.088Z,801.42
2017-08-10T00:49:02.423Z,801.43
2017-08-10T00:49:06.884Z,801.43
2017-08-10T00:49:11.111Z,801.46
2017-08-10T00:49:15.471Z,801.45
2017-08-10T00:49:19.691Z,801.48
2017-08-10T00:49:24.142Z,801.45
2017-08-10T00:49:28.493Z,801.49
2017-08-10T00:49:32.949Z,801.45
2017-08-10T00:49:37.280Z,801.5
2017-08-10T00:49:41.749Z,801.5
2017-08-10T00:49:46.014Z,801.49
2017-08-10T00:49:50.138Z,801.49
2017-08-10T00:49:54.610Z,801.51
2017-08-10T00:49:58.972Z,801.52
2017-08-10T00:50:03.385Z,801.54
2017-08-10T00:50:07.844Z,801.56
2017-08-10T00:50:12.187Z,801.55
2017-08-10T00:50:16.429Z,801.53
2017-08-10T00:50:20.526Z,801.56
2017-08-10T00:50:24.997Z,801.59
2017-08-10T00:50:29.447Z,801.6
2017-08-10T00:50:33.796Z,801.63
2017-08-10T00:50:38.048Z,801.65
2017-08-10T00:50:42.290Z,801.66
2017-08-10T00:50:46.755Z,801.65
2017-08-10T00:50:51.221Z,801.64
2017-08-10T00:50:55.696Z,801.64
2017-08-10T00:50:59.919Z,801.67
2017-08-10T00:51:04.156Z,801.7
2017-08-10T00:51:08.608Z,801.69
2017-08-10T00:51:12.961Z,801.68
2017-08-10T00:51:17.310Z,801.7
2017-08-10T00:51:21.766Z,801.69
2017-08-10T00:51:26.109Z,801.73
2017-08-10T00:51:30.456Z,801.72
2017-08-10T00:51:34.916Z,801.72
2017-08-10T00:51:39.269Z,801.74
2017-08-10T00:51:43.738Z,801.76
2017-08-10T00:51:48.212Z,801.76
2017-08-10T00:51:52.667Z,801.75
2017-08-10T00:51:57.042Z,801.76
2017-08-10T00:52:01.266Z,801.76
2017-08-10T00:52:05.787Z,801.8
2017-08-10T00:52:10.127Z,801.77
2017-08-10T00:52:14.610Z,801.82
2017-08-10T00:52:19.074Z,801.83
2017-08-10T00:52:23.534Z,801.81
2017-08-10T00:52:28.003Z,801.82
2017-08-10T00:52:32.126Z,801.85
2017-08-10T00:52:36.340Z,801.85
2017-08-10T00:52:40.568Z,801.83
2017-08-10T00:52:44.792Z,801.88
2017-08-10T00:52:49.121Z,801.88
2017-08-10T00:52:53.356Z,801.89
2017-08-10T00:52:57.702Z,801.89
2017-08-10T00:53:01.956Z,801.89
2017-08-10T00:53:06.421Z,801.93
2017-08-10T00:53:10.916Z,801.87
2017-08-10T00:53:15.266Z,801.94
2017-08-10T00:53:19.745Z,801.9
2017-08-10T00:53:24.091Z,801.93
2017-08-10T00:53:28.429Z,801.94
2017-08-10T00:53:32.813Z,801.9
2017-08-10T00:53:37.150Z,801.93
2017-08-10T00:53:41.397Z,801.98
2017-08-10T00:53:45.616Z,801.99
2017-08-10T00:53:50.076Z,801.97
2017-08-10T00:53:54.420Z,801.98
2017-08-10T00:53:58.895Z,801.98
2017-08-10T00:54:02.898Z,801.98
2017-08-10T00:54:07.245Z,802.01
2017-08-10T00:54:11.585Z,802.02
2017-08-10T00:54:15.687Z,802.02
2017-08-10T00:54:20.280Z,802.04
2017-08-10T00:54:24.641Z,802.05
2017-08-10T00:54:28.980Z,802
2017-08-10T00:54:33.314Z,802.04
2017-08-10T00:54:37.686Z,802.03
2017-08-10T00:54:42.141Z,802.07